sensor_id;sensor_type;location;lat;lon;timestamp;P1;durP1;ratioP1;P2;durP2;ratioP2
63499;SDS011;49654;51.142;14.924;2023-06-22T00:00:48;9.90;;;8.90;;
63499;SDS011;49654;51.142;14.924;2023-06-22T00:03:15;10.32;;;9.07;;
63499;SDS011;49654;51.142;14.924;2023-06-22T00:05:44;10.30;;;9.23;;
63499;SDS011;49654;51.142;14.924;2023-06-22T00:08:12;11.75;;;8.98;;
63499;SDS011;49654;51.142;14.924;2023-06-22T00:10:40;10.93;;;9.85;;
63499;SDS011;49654;51.142;14.924;2023-06-22T00:13:07;10.25;;;9.25;;
63499;SDS011;49654;51.142;14.924;2023-06-22T00:15:36;9.60;;;8.73;;
63499;SDS011;49654;51.142;14.924;2023-06-22T00:18:04;11.07;;;9.98;;
63499;SDS011;49654;51.142;14.924;2023-06-22T00:20:31;10.82;;;9.73;;
63499;SDS011;49654;51.142;14.924;2023-06-22T00:22:59;10.50;;;9.50;;
63499;SDS011;49654;51.142;14.924;2023-06-22T00:25:27;12.00;;;10.73;;
63499;SDS011;49654;51.142;14.924;2023-06-22T00:27:54;11.30;;;10.18;;
63499;SDS011;49654;51.142;14.924;2023-06-22T00:30:21;11.65;;;10.10;;
63499;SDS011;49654;51.142;14.924;2023-06-22T00:32:48;11.15;;;10.05;;
63499;SDS011;49654;51.142;14.924;2023-06-22T00:35:15;10.50;;;9.40;;
63499;SDS011;49654;51.142;14.924;2023-06-22T00:37:42;11.02;;;9.95;;
63499;SDS011;49654;51.142;14.924;2023-06-22T00:40:09;10.45;;;9.40;;
63499;SDS011;49654;51.142;14.924;2023-06-22T00:42:39;12.73;;;9.43;;
63499;SDS011;49654;51.142;14.924;2023-06-22T00:45:06;10.98;;;9.77;;
63499;SDS011;49654;51.142;14.924;2023-06-22T00:47:34;10.65;;;9.55;;
63499;SDS011;49654;51.142;14.924;2023-06-22T00:50:01;10.35;;;9.23;;
63499;SDS011;49654;51.142;14.924;2023-06-22T00:52:29;11.73;;;9.50;;
63499;SDS011;49654;51.142;14.924;2023-06-22T00:54:59;11.10;;;9.95;;
63499;SDS011;49654;51.142;14.924;2023-06-22T00:57:27;11.93;;;9.35;;
63499;SDS011;49654;51.142;14.924;2023-06-22T00:59:56;12.30;;;9.23;;
63499;SDS011;49654;51.142;14.924;2023-06-22T01:02:23;12.52;;;8.93;;
63499;SDS011;49654;51.142;14.924;2023-06-22T01:04:50;12.38;;;9.73;;
63499;SDS011;49654;51.142;14.924;2023-06-22T01:07:19;10.77;;;9.68;;
63499;SDS011;49654;51.142;14.924;2023-06-22T01:09:52;12.18;;;10.50;;
63499;SDS011;49654;51.142;14.924;2023-06-22T01:12:24;16.08;;;10.90;;
63499;SDS011;49654;51.142;14.924;2023-06-22T01:14:57;12.88;;;9.95;;
63499;SDS011;49654;51.142;14.924;2023-06-22T01:17:28;13.05;;;10.32;;
63499;SDS011;49654;51.142;14.924;2023-06-22T01:19:56;16.50;;;11.57;;
63499;SDS011;49654;51.142;14.924;2023-06-22T01:22:24;12.75;;;10.45;;
63499;SDS011;49654;51.142;14.924;2023-06-22T01:24:56;14.57;;;10.57;;
63499;SDS011;49654;51.142;14.924;2023-06-22T01:27:36;12.25;;;10.73;;
63499;SDS011;49654;51.142;14.924;2023-06-22T01:30:12;15.75;;;10.48;;
63499;SDS011;49654;51.142;14.924;2023-06-22T01:32:42;12.25;;;10.55;;
63499;SDS011;49654;51.142;14.924;2023-06-22T01:35:10;14.60;;;10.45;;
63499;SDS011;49654;51.142;14.924;2023-06-22T01:37:38;12.75;;;10.18;;
63499;SDS011;49654;51.142;14.924;2023-06-22T01:40:06;11.85;;;10.05;;
63499;SDS011;49654;51.142;14.924;2023-06-22T01:42:35;12.70;;;10.60;;
63499;SDS011;49654;51.142;14.924;2023-06-22T01:45:03;11.23;;;10.13;;
63499;SDS011;49654;51.142;14.924;2023-06-22T01:47:33;16.00;;;11.13;;
63499;SDS011;49654;51.142;14.924;2023-06-22T01:50:01;14.82;;;10.50;;
63499;SDS011;49654;51.142;14.924;2023-06-22T01:52:28;13.50;;;10.50;;
63499;SDS011;49654;51.142;14.924;2023-06-22T01:54:55;11.55;;;10.35;;
63499;SDS011;49654;51.142;14.924;2023-06-22T01:57:23;14.23;;;10.43;;
63499;SDS011;49654;51.142;14.924;2023-06-22T01:59:53;12.75;;;9.90;;
63499;SDS011;49654;51.142;14.924;2023-06-22T02:02:27;12.38;;;10.25;;
63499;SDS011;49654;51.142;14.924;2023-06-22T02:05:01;18.52;;;10.98;;
63499;SDS011;49654;51.142;14.924;2023-06-22T02:07:34;15.90;;;10.63;;
63499;SDS011;49654;51.142;14.924;2023-06-22T02:10:08;15.18;;;9.80;;
63499;SDS011;49654;51.142;14.924;2023-06-22T02:12:37;18.10;;;9.65;;
63499;SDS011;49654;51.142;14.924;2023-06-22T02:15:06;12.82;;;9.60;;
63499;SDS011;49654;51.142;14.924;2023-06-22T02:17:34;15.25;;;10.18;;
63499;SDS011;49654;51.142;14.924;2023-06-22T02:20:03;13.70;;;10.05;;
63499;SDS011;49654;51.142;14.924;2023-06-22T02:22:34;15.93;;;9.95;;
63499;SDS011;49654;51.142;14.924;2023-06-22T02:25:01;17.83;;;9.95;;
63499;SDS011;49654;51.142;14.924;2023-06-22T02:27:28;14.88;;;10.13;;
63499;SDS011;49654;51.142;14.924;2023-06-22T02:29:54;15.43;;;10.02;;
63499;SDS011;49654;51.142;14.924;2023-06-22T02:32:21;17.27;;;9.82;;
63499;SDS011;49654;51.142;14.924;2023-06-22T02:34:48;13.70;;;9.35;;
63499;SDS011;49654;51.142;14.924;2023-06-22T02:37:20;15.27;;;10.85;;
63499;SDS011;49654;51.142;14.924;2023-06-22T02:39:50;13.75;;;11.50;;
63499;SDS011;49654;51.142;14.924;2023-06-22T02:42:17;16.63;;;9.88;;
63499;SDS011;49654;51.142;14.924;2023-06-22T02:44:47;12.00;;;10.80;;
63499;SDS011;49654;51.142;14.924;2023-06-22T02:47:14;16.80;;;10.75;;
63499;SDS011;49654;51.142;14.924;2023-06-22T02:49:41;15.07;;;9.57;;
63499;SDS011;49654;51.142;14.924;2023-06-22T02:52:10;16.73;;;9.98;;
63499;SDS011;49654;51.142;14.924;2023-06-22T02:54:38;14.90;;;10.52;;
63499;SDS011;49654;51.142;14.924;2023-06-22T02:57:05;15.23;;;10.10;;
63499;SDS011;49654;51.142;14.924;2023-06-22T02:59:32;15.77;;;10.40;;
63499;SDS011;49654;51.142;14.924;2023-06-22T03:01:59;18.50;;;10.38;;
63499;SDS011;49654;51.142;14.924;2023-06-22T03:04:26;17.52;;;10.80;;
63499;SDS011;49654;51.142;14.924;2023-06-22T03:06:53;17.17;;;10.77;;
63499;SDS011;49654;51.142;14.924;2023-06-22T03:09:20;20.25;;;10.45;;
63499;SDS011;49654;51.142;14.924;2023-06-22T03:11:48;18.77;;;10.80;;
63499;SDS011;49654;51.142;14.924;2023-06-22T03:14:15;14.00;;;10.63;;
63499;SDS011;49654;51.142;14.924;2023-06-22T03:16:42;15.90;;;10.65;;
63499;SDS011;49654;51.142;14.924;2023-06-22T03:19:09;17.70;;;10.65;;
63499;SDS011;49654;51.142;14.924;2023-06-22T03:21:36;16.05;;;10.98;;
63499;SDS011;49654;51.142;14.924;2023-06-22T03:24:04;14.20;;;10.80;;
63499;SDS011;49654;51.142;14.924;2023-06-22T03:26:31;15.52;;;10.27;;
63499;SDS011;49654;51.142;14.924;2023-06-22T03:28:59;15.70;;;10.90;;
63499;SDS011;49654;51.142;14.924;2023-06-22T03:31:26;14.30;;;10.68;;
63499;SDS011;49654;51.142;14.924;2023-06-22T03:33:53;15.30;;;10.82;;
63499;SDS011;49654;51.142;14.924;2023-06-22T03:36:21;17.70;;;10.73;;
63499;SDS011;49654;51.142;14.924;2023-06-22T03:38:49;15.38;;;10.88;;
63499;SDS011;49654;51.142;14.924;2023-06-22T03:41:16;15.45;;;11.38;;
63499;SDS011;49654;51.142;14.924;2023-06-22T03:43:43;16.13;;;10.75;;
63499;SDS011;49654;51.142;14.924;2023-06-22T03:46:12;13.65;;;11.20;;
63499;SDS011;49654;51.142;14.924;2023-06-22T03:48:39;17.45;;;11.70;;
63499;SDS011;49654;51.142;14.924;2023-06-22T03:51:05;14.00;;;11.50;;
63499;SDS011;49654;51.142;14.924;2023-06-22T03:53:32;11.85;;;10.65;;
63499;SDS011;49654;51.142;14.924;2023-06-22T03:55:59;12.63;;;11.30;;
63499;SDS011;49654;51.142;14.924;2023-06-22T03:58:26;16.95;;;12.05;;
63499;SDS011;49654;51.142;14.924;2023-06-22T04:00:58;14.10;;;11.50;;
63499;SDS011;49654;51.142;14.924;2023-06-22T04:03:27;16.33;;;11.18;;
63499;SDS011;49654;51.142;14.924;2023-06-22T04:05:54;13.68;;;11.52;;
63499;SDS011;49654;51.142;14.924;2023-06-22T04:08:21;13.75;;;11.32;;
63499;SDS011;49654;51.142;14.924;2023-06-22T04:10:48;12.57;;;10.40;;
63499;SDS011;49654;51.142;14.924;2023-06-22T04:13:15;13.98;;;11.30;;
63499;SDS011;49654;51.142;14.924;2023-06-22T04:15:42;12.82;;;11.52;;
63499;SDS011;49654;51.142;14.924;2023-06-22T04:18:09;14.88;;;10.82;;
63499;SDS011;49654;51.142;14.924;2023-06-22T04:20:37;12.30;;;11.07;;
63499;SDS011;49654;51.142;14.924;2023-06-22T04:23:04;11.48;;;9.75;;
63499;SDS011;49654;51.142;14.924;2023-06-22T04:25:31;11.55;;;10.45;;
63499;SDS011;49654;51.142;14.924;2023-06-22T04:27:58;12.45;;;11.15;;
63499;SDS011;49654;51.142;14.924;2023-06-22T04:30:24;14.68;;;11.35;;
63499;SDS011;49654;51.142;14.924;2023-06-22T04:32:52;12.57;;;10.80;;
63499;SDS011;49654;51.142;14.924;2023-06-22T04:35:23;13.35;;;11.23;;
63499;SDS011;49654;51.142;14.924;2023-06-22T04:37:52;13.45;;;11.90;;
63499;SDS011;49654;51.142;14.924;2023-06-22T04:40:21;12.98;;;11.77;;
63499;SDS011;49654;51.142;14.924;2023-06-22T04:42:48;16.27;;;14.68;;
63499;SDS011;49654;51.142;14.924;2023-06-22T04:45:19;14.52;;;13.13;;
63499;SDS011;49654;51.142;14.924;2023-06-22T04:47:46;15.75;;;14.15;;
63499;SDS011;49654;51.142;14.924;2023-06-22T04:50:13;15.23;;;13.55;;
63499;SDS011;49654;51.142;14.924;2023-06-22T04:52:40;15.65;;;13.93;;
63499;SDS011;49654;51.142;14.924;2023-06-22T04:55:09;16.33;;;14.25;;
63499;SDS011;49654;51.142;14.924;2023-06-22T04:57:36;19.50;;;16.60;;
63499;SDS011;49654;51.142;14.924;2023-06-22T05:00:05;23.30;;;20.80;;
63499;SDS011;49654;51.142;14.924;2023-06-22T05:02:42;21.05;;;18.90;;
63499;SDS011;49654;51.142;14.924;2023-06-22T05:05:10;25.63;;;22.92;;
63499;SDS011;49654;51.142;14.924;2023-06-22T05:07:39;28.08;;;22.67;;
63499;SDS011;49654;51.142;14.924;2023-06-22T05:10:10;23.90;;;21.20;;
63499;SDS011;49654;51.142;14.924;2023-06-22T05:12:38;21.80;;;19.58;;
63499;SDS011;49654;51.142;14.924;2023-06-22T05:15:05;25.00;;;21.45;;
63499;SDS011;49654;51.142;14.924;2023-06-22T05:17:33;23.45;;;20.10;;
63499;SDS011;49654;51.142;14.924;2023-06-22T05:20:01;19.83;;;17.70;;
63499;SDS011;49654;51.142;14.924;2023-06-22T05:22:31;22.02;;;16.63;;
63499;SDS011;49654;51.142;14.924;2023-06-22T05:24:59;19.33;;;16.00;;
63499;SDS011;49654;51.142;14.924;2023-06-22T05:27:27;17.15;;;15.45;;
63499;SDS011;49654;51.142;14.924;2023-06-22T05:29:54;16.48;;;14.82;;
63499;SDS011;49654;51.142;14.924;2023-06-22T05:32:21;16.58;;;14.88;;
63499;SDS011;49654;51.142;14.924;2023-06-22T05:34:48;16.48;;;14.90;;
63499;SDS011;49654;51.142;14.924;2023-06-22T05:37:15;16.35;;;14.50;;
63499;SDS011;49654;51.142;14.924;2023-06-22T05:39:42;17.60;;;14.23;;
63499;SDS011;49654;51.142;14.924;2023-06-22T05:42:09;15.50;;;13.90;;
63499;SDS011;49654;51.142;14.924;2023-06-22T05:44:38;15.23;;;13.57;;
63499;SDS011;49654;51.142;14.924;2023-06-22T05:47:06;16.75;;;13.60;;
63499;SDS011;49654;51.142;14.924;2023-06-22T05:49:33;15.27;;;13.68;;
63499;SDS011;49654;51.142;14.924;2023-06-22T05:52:00;15.50;;;13.93;;
63499;SDS011;49654;51.142;14.924;2023-06-22T05:54:27;14.65;;;13.15;;
63499;SDS011;49654;51.142;14.924;2023-06-22T05:56:54;16.48;;;14.68;;
63499;SDS011;49654;51.142;14.924;2023-06-22T05:59:21;15.30;;;13.75;;
63499;SDS011;49654;51.142;14.924;2023-06-22T06:01:49;15.45;;;13.85;;
63499;SDS011;49654;51.142;14.924;2023-06-22T06:04:16;14.52;;;13.13;;
63499;SDS011;49654;51.142;14.924;2023-06-22T06:06:44;15.07;;;12.75;;
63499;SDS011;49654;51.142;14.924;2023-06-22T06:09:12;13.15;;;11.95;;
63499;SDS011;49654;51.142;14.924;2023-06-22T06:11:39;14.10;;;12.70;;
63499;SDS011;49654;51.142;14.924;2023-06-22T06:14:06;13.32;;;12.02;;
63499;SDS011;49654;51.142;14.924;2023-06-22T06:16:33;15.82;;;13.70;;
63499;SDS011;49654;51.142;14.924;2023-06-22T06:19:01;14.70;;;13.18;;
63499;SDS011;49654;51.142;14.924;2023-06-22T06:21:28;15.75;;;13.05;;
63499;SDS011;49654;51.142;14.924;2023-06-22T06:23:55;15.35;;;12.93;;
63499;SDS011;49654;51.142;14.924;2023-06-22T06:26:22;12.70;;;11.50;;
63499;SDS011;49654;51.142;14.924;2023-06-22T06:28:53;12.10;;;11.00;;
63499;SDS011;49654;51.142;14.924;2023-06-22T06:31:20;15.30;;;13.70;;
63499;SDS011;49654;51.142;14.924;2023-06-22T06:33:48;12.10;;;10.95;;
63499;SDS011;49654;51.142;14.924;2023-06-22T06:36:17;12.65;;;11.45;;
63499;SDS011;49654;51.142;14.924;2023-06-22T06:38:44;12.25;;;11.15;;
63499;SDS011;49654;51.142;14.924;2023-06-22T06:41:12;12.88;;;11.57;;
63499;SDS011;49654;51.142;14.924;2023-06-22T06:43:39;12.07;;;10.88;;
63499;SDS011;49654;51.142;14.924;2023-06-22T06:46:08;12.32;;;11.02;;
63499;SDS011;49654;51.142;14.924;2023-06-22T06:48:35;11.32;;;10.23;;
63499;SDS011;49654;51.142;14.924;2023-06-22T06:51:02;13.65;;;10.85;;
63499;SDS011;49654;51.142;14.924;2023-06-22T06:53:30;11.85;;;10.65;;
63499;SDS011;49654;51.142;14.924;2023-06-22T06:55:57;12.18;;;9.80;;
63499;SDS011;49654;51.142;14.924;2023-06-22T06:58:24;10.38;;;9.38;;
63499;SDS011;49654;51.142;14.924;2023-06-22T07:00:51;11.23;;;10.23;;
63499;SDS011;49654;51.142;14.924;2023-06-22T07:03:18;10.80;;;9.70;;
63499;SDS011;49654;51.142;14.924;2023-06-22T07:05:45;10.35;;;9.45;;
63499;SDS011;49654;51.142;14.924;2023-06-22T07:08:12;10.20;;;9.30;;
63499;SDS011;49654;51.142;14.924;2023-06-22T07:10:40;10.63;;;9.63;;
63499;SDS011;49654;51.142;14.924;2023-06-22T07:13:07;10.60;;;9.60;;
63499;SDS011;49654;51.142;14.924;2023-06-22T07:15:34;9.80;;;8.90;;
63499;SDS011;49654;51.142;14.924;2023-06-22T07:18:01;10.75;;;9.60;;
63499;SDS011;49654;51.142;14.924;2023-06-22T07:20:28;10.45;;;9.38;;
63499;SDS011;49654;51.142;14.924;2023-06-22T07:22:55;9.98;;;8.98;;
63499;SDS011;49654;51.142;14.924;2023-06-22T07:25:22;9.73;;;8.82;;
63499;SDS011;49654;51.142;14.924;2023-06-22T07:27:58;10.00;;;9.00;;
63499;SDS011;49654;51.142;14.924;2023-06-22T07:30:27;9.23;;;8.32;;
63499;SDS011;49654;51.142;14.924;2023-06-22T07:32:55;9.25;;;8.27;;
63499;SDS011;49654;51.142;14.924;2023-06-22T07:35:22;9.20;;;8.35;;
63499;SDS011;49654;51.142;14.924;2023-06-22T07:37:49;9.45;;;8.40;;
63499;SDS011;49654;51.142;14.924;2023-06-22T07:40:16;9.57;;;8.77;;
63499;SDS011;49654;51.142;14.924;2023-06-22T07:42:43;10.25;;;8.48;;
63499;SDS011;49654;51.142;14.924;2023-06-22T07:45:15;8.90;;;8.10;;
63499;SDS011;49654;51.142;14.924;2023-06-22T07:47:41;9.30;;;8.50;;
63499;SDS011;49654;51.142;14.924;2023-06-22T07:50:09;8.95;;;8.23;;
63499;SDS011;49654;51.142;14.924;2023-06-22T07:52:36;9.68;;;8.75;;
63499;SDS011;49654;51.142;14.924;2023-06-22T07:55:03;8.77;;;7.97;;
63499;SDS011;49654;51.142;14.924;2023-06-22T07:57:31;8.40;;;7.70;;
63499;SDS011;49654;51.142;14.924;2023-06-22T08:00:02;11.02;;;8.55;;
63499;SDS011;49654;51.142;14.924;2023-06-22T08:02:38;9.27;;;8.38;;
63499;SDS011;49654;51.142;14.924;2023-06-22T08:05:05;9.55;;;8.60;;
63499;SDS011;49654;51.142;14.924;2023-06-22T08:07:33;9.68;;;8.68;;
63499;SDS011;49654;51.142;14.924;2023-06-22T08:10:03;8.93;;;8.13;;
63499;SDS011;49654;51.142;14.924;2023-06-22T08:12:30;9.05;;;8.18;;
63499;SDS011;49654;51.142;14.924;2023-06-22T08:14:57;9.25;;;8.45;;
63499;SDS011;49654;51.142;14.924;2023-06-22T08:17:24;9.30;;;8.45;;
63499;SDS011;49654;51.142;14.924;2023-06-22T08:19:53;9.70;;;8.75;;
63499;SDS011;49654;51.142;14.924;2023-06-22T08:22:20;9.82;;;8.82;;
63499;SDS011;49654;51.142;14.924;2023-06-22T08:24:47;10.07;;;9.13;;
63499;SDS011;49654;51.142;14.924;2023-06-22T08:27:14;9.60;;;8.60;;
63499;SDS011;49654;51.142;14.924;2023-06-22T08:29:42;9.80;;;8.85;;
63499;SDS011;49654;51.142;14.924;2023-06-22T08:32:11;9.18;;;8.27;;
63499;SDS011;49654;51.142;14.924;2023-06-22T08:34:38;9.48;;;8.57;;
63499;SDS011;49654;51.142;14.924;2023-06-22T08:37:09;9.30;;;8.40;;
63499;SDS011;49654;51.142;14.924;2023-06-22T08:39:36;10.80;;;9.18;;
63499;SDS011;49654;51.142;14.924;2023-06-22T08:42:05;9.85;;;8.88;;
63499;SDS011;49654;51.142;14.924;2023-06-22T08:44:32;9.70;;;8.70;;
63499;SDS011;49654;51.142;14.924;2023-06-22T08:46:59;9.43;;;8.52;;
63499;SDS011;49654;51.142;14.924;2023-06-22T08:49:26;10.20;;;9.30;;
63499;SDS011;49654;51.142;14.924;2023-06-22T08:51:53;10.32;;;9.10;;
63499;SDS011;49654;51.142;14.924;2023-06-22T08:54:23;9.50;;;8.60;;
63499;SDS011;49654;51.142;14.924;2023-06-22T08:56:50;11.30;;;9.10;;
63499;SDS011;49654;51.142;14.924;2023-06-22T08:59:17;10.48;;;9.38;;
63499;SDS011;49654;51.142;14.924;2023-06-22T09:01:44;10.13;;;9.13;;
63499;SDS011;49654;51.142;14.924;2023-06-22T09:04:14;9.20;;;8.40;;
63499;SDS011;49654;51.142;14.924;2023-06-22T09:06:41;9.10;;;8.30;;
63499;SDS011;49654;51.142;14.924;2023-06-22T09:09:12;9.10;;;8.20;;
63499;SDS011;49654;51.142;14.924;2023-06-22T09:11:43;9.32;;;8.50;;
63499;SDS011;49654;51.142;14.924;2023-06-22T09:14:10;10.95;;;8.88;;
63499;SDS011;49654;51.142;14.924;2023-06-22T09:16:37;9.02;;;8.13;;
63499;SDS011;49654;51.142;14.924;2023-06-22T09:19:04;8.10;;;7.30;;
63499;SDS011;49654;51.142;14.924;2023-06-22T09:21:31;8.75;;;7.95;;
63499;SDS011;49654;51.142;14.924;2023-06-22T09:23:58;9.63;;;8.20;;
63499;SDS011;49654;51.142;14.924;2023-06-22T09:26:25;9.80;;;7.50;;
63499;SDS011;49654;51.142;14.924;2023-06-22T09:28:53;9.20;;;7.70;;
63499;SDS011;49654;51.142;14.924;2023-06-22T09:31:20;8.43;;;7.63;;
63499;SDS011;49654;51.142;14.924;2023-06-22T09:33:51;8.77;;;7.85;;
63499;SDS011;49654;51.142;14.924;2023-06-22T09:36:19;8.60;;;7.80;;
63499;SDS011;49654;51.142;14.924;2023-06-22T09:38:47;8.25;;;7.55;;
63499;SDS011;49654;51.142;14.924;2023-06-22T09:41:14;8.43;;;7.65;;
63499;SDS011;49654;51.142;14.924;2023-06-22T09:43:41;8.77;;;7.97;;
63499;SDS011;49654;51.142;14.924;2023-06-22T09:46:10;7.88;;;7.07;;
63499;SDS011;49654;51.142;14.924;2023-06-22T09:48:37;8.10;;;7.38;;
63499;SDS011;49654;51.142;14.924;2023-06-22T09:51:03;7.75;;;7.05;;
63499;SDS011;49654;51.142;14.924;2023-06-22T09:53:30;8.23;;;7.50;;
63499;SDS011;49654;51.142;14.924;2023-06-22T09:55:57;8.32;;;7.63;;
63499;SDS011;49654;51.142;14.924;2023-06-22T09:58:24;8.25;;;7.55;;
63499;SDS011;49654;51.142;14.924;2023-06-22T10:00:51;7.63;;;6.97;;
63499;SDS011;49654;51.142;14.924;2023-06-22T10:03:21;7.70;;;7.00;;
63499;SDS011;49654;51.142;14.924;2023-06-22T10:05:48;7.32;;;6.63;;
63499;SDS011;49654;51.142;14.924;2023-06-22T10:08:15;7.35;;;6.60;;
63499;SDS011;49654;51.142;14.924;2023-06-22T10:10:42;7.43;;;6.80;;
63499;SDS011;49654;51.142;14.924;2023-06-22T10:13:09;7.18;;;6.55;;
63499;SDS011;49654;51.142;14.924;2023-06-22T10:15:37;7.55;;;6.85;;
63499;SDS011;49654;51.142;14.924;2023-06-22T10:18:04;7.22;;;6.53;;
63499;SDS011;49654;51.142;14.924;2023-06-22T10:20:33;6.72;;;6.03;;
63499;SDS011;49654;51.142;14.924;2023-06-22T10:23:00;6.70;;;6.07;;
63499;SDS011;49654;51.142;14.924;2023-06-22T10:25:27;7.35;;;6.45;;
63499;SDS011;49654;51.142;14.924;2023-06-22T10:27:54;6.65;;;5.97;;
63499;SDS011;49654;51.142;14.924;2023-06-22T10:30:21;6.55;;;6.05;;
63499;SDS011;49654;51.142;14.924;2023-06-22T10:32:47;6.45;;;5.90;;
63499;SDS011;49654;51.142;14.924;2023-06-22T10:35:14;7.20;;;6.63;;
63499;SDS011;49654;51.142;14.924;2023-06-22T10:37:43;6.88;;;6.28;;
63499;SDS011;49654;51.142;14.924;2023-06-22T10:40:11;7.40;;;6.80;;
63499;SDS011;49654;51.142;14.924;2023-06-22T10:42:40;7.45;;;6.78;;
63499;SDS011;49654;51.142;14.924;2023-06-22T10:45:07;7.40;;;6.65;;
63499;SDS011;49654;51.142;14.924;2023-06-22T10:47:35;7.30;;;6.68;;
63499;SDS011;49654;51.142;14.924;2023-06-22T10:50:03;7.13;;;6.43;;
63499;SDS011;49654;51.142;14.924;2023-06-22T10:52:31;7.07;;;6.35;;
63499;SDS011;49654;51.142;14.924;2023-06-22T10:54:59;7.10;;;6.50;;
63499;SDS011;49654;51.142;14.924;2023-06-22T10:57:26;7.70;;;6.90;;
63499;SDS011;49654;51.142;14.924;2023-06-22T10:59:53;7.05;;;6.45;;
63499;SDS011;49654;51.142;14.924;2023-06-22T11:02:20;6.97;;;6.32;;
63499;SDS011;49654;51.142;14.924;2023-06-22T11:04:47;10.90;;;6.95;;
63499;SDS011;49654;51.142;14.924;2023-06-22T11:07:14;6.80;;;5.95;;
63499;SDS011;49654;51.142;14.924;2023-06-22T11:09:42;8.07;;;5.95;;
63499;SDS011;49654;51.142;14.924;2023-06-22T11:12:11;7.07;;;6.38;;
63499;SDS011;49654;51.142;14.924;2023-06-22T11:14:38;7.22;;;5.82;;
63499;SDS011;49654;51.142;14.924;2023-06-22T11:17:05;6.95;;;6.35;;
63499;SDS011;49654;51.142;14.924;2023-06-22T11:19:32;6.50;;;5.97;;
63499;SDS011;49654;51.142;14.924;2023-06-22T11:21:59;7.13;;;6.53;;
63499;SDS011;49654;51.142;14.924;2023-06-22T11:24:26;6.40;;;5.75;;
63499;SDS011;49654;51.142;14.924;2023-06-22T11:26:53;8.30;;;6.45;;
63499;SDS011;49654;51.142;14.924;2023-06-22T11:29:21;7.15;;;6.45;;
63499;SDS011;49654;51.142;14.924;2023-06-22T11:31:48;6.88;;;6.30;;
63499;SDS011;49654;51.142;14.924;2023-06-22T11:34:15;5.85;;;5.35;;
63499;SDS011;49654;51.142;14.924;2023-06-22T11:36:42;6.60;;;5.93;;
63499;SDS011;49654;51.142;14.924;2023-06-22T11:39:09;7.07;;;6.47;;
63499;SDS011;49654;51.142;14.924;2023-06-22T11:41:37;6.50;;;5.95;;
63499;SDS011;49654;51.142;14.924;2023-06-22T11:44:04;7.00;;;6.50;;
63499;SDS011;49654;51.142;14.924;2023-06-22T11:46:33;6.80;;;6.20;;
63499;SDS011;49654;51.142;14.924;2023-06-22T11:49:00;6.93;;;6.22;;
63499;SDS011;49654;51.142;14.924;2023-06-22T11:51:28;7.05;;;6.43;;
63499;SDS011;49654;51.142;14.924;2023-06-22T11:53:56;6.60;;;6.00;;
63499;SDS011;49654;51.142;14.924;2023-06-22T11:56:23;6.88;;;6.25;;
63499;SDS011;49654;51.142;14.924;2023-06-22T11:58:50;8.13;;;6.47;;
63499;SDS011;49654;51.142;14.924;2023-06-22T12:01:17;7.15;;;6.47;;
63499;SDS011;49654;51.142;14.924;2023-06-22T12:03:46;7.13;;;6.50;;
63499;SDS011;49654;51.142;14.924;2023-06-22T12:06:13;6.53;;;5.93;;
63499;SDS011;49654;51.142;14.924;2023-06-22T12:08:40;6.95;;;6.35;;
63499;SDS011;49654;51.142;14.924;2023-06-22T12:11:07;6.40;;;5.90;;
63499;SDS011;49654;51.142;14.924;2023-06-22T12:13:34;7.70;;;7.00;;
63499;SDS011;49654;51.142;14.924;2023-06-22T12:16:01;8.63;;;7.10;;
63499;SDS011;49654;51.142;14.924;2023-06-22T12:18:28;7.00;;;6.40;;
63499;SDS011;49654;51.142;14.924;2023-06-22T12:20:56;7.38;;;6.55;;
63499;SDS011;49654;51.142;14.924;2023-06-22T12:23:23;8.35;;;7.55;;
63499;SDS011;49654;51.142;14.924;2023-06-22T12:25:50;8.48;;;7.63;;
63499;SDS011;49654;51.142;14.924;2023-06-22T12:28:17;7.75;;;7.10;;
63499;SDS011;49654;51.142;14.924;2023-06-22T12:30:44;8.55;;;7.53;;
63499;SDS011;49654;51.142;14.924;2023-06-22T12:33:11;8.32;;;7.53;;
63499;SDS011;49654;51.142;14.924;2023-06-22T12:35:38;7.55;;;6.93;;
63499;SDS011;49654;51.142;14.924;2023-06-22T12:38:06;7.60;;;7.00;;
63499;SDS011;49654;51.142;14.924;2023-06-22T12:40:33;8.00;;;7.30;;
63499;SDS011;49654;51.142;14.924;2023-06-22T12:43:00;8.25;;;7.45;;
63499;SDS011;49654;51.142;14.924;2023-06-22T12:45:27;7.82;;;7.15;;
63499;SDS011;49654;51.142;14.924;2023-06-22T12:47:57;8.77;;;7.80;;
63499;SDS011;49654;51.142;14.924;2023-06-22T12:50:25;9.10;;;8.30;;
63499;SDS011;49654;51.142;14.924;2023-06-22T12:52:52;8.88;;;7.97;;
63499;SDS011;49654;51.142;14.924;2023-06-22T12:55:20;8.20;;;7.55;;
63499;SDS011;49654;51.142;14.924;2023-06-22T12:57:47;9.05;;;8.25;;
63499;SDS011;49654;51.142;14.924;2023-06-22T13:00:14;9.48;;;7.82;;
63499;SDS011;49654;51.142;14.924;2023-06-22T13:02:42;8.20;;;7.50;;
63499;SDS011;49654;51.142;14.924;2023-06-22T13:05:09;7.90;;;7.20;;
63499;SDS011;49654;51.142;14.924;2023-06-22T13:07:36;8.90;;;8.10;;
63499;SDS011;49654;51.142;14.924;2023-06-22T13:10:03;8.32;;;7.72;;
63499;SDS011;49654;51.142;14.924;2023-06-22T13:12:32;8.98;;;8.27;;
63499;SDS011;49654;51.142;14.924;2023-06-22T13:15:00;9.07;;;8.27;;
63499;SDS011;49654;51.142;14.924;2023-06-22T13:17:28;19.35;;;10.45;;
63499;SDS011;49654;51.142;14.924;2023-06-22T13:19:55;9.27;;;8.48;;
63499;SDS011;49654;51.142;14.924;2023-06-22T13:22:26;9.10;;;8.40;;
63499;SDS011;49654;51.142;14.924;2023-06-22T13:24:54;9.60;;;8.77;;
63499;SDS011;49654;51.142;14.924;2023-06-22T13:27:21;9.27;;;8.40;;
63499;SDS011;49654;51.142;14.924;2023-06-22T13:29:50;12.80;;;8.80;;
63499;SDS011;49654;51.142;14.924;2023-06-22T13:32:17;8.60;;;7.90;;
63499;SDS011;49654;51.142;14.924;2023-06-22T13:34:44;8.10;;;7.30;;
63499;SDS011;49654;51.142;14.924;2023-06-22T13:37:11;8.18;;;7.38;;
63499;SDS011;49654;51.142;14.924;2023-06-22T13:39:38;8.35;;;7.50;;
63499;SDS011;49654;51.142;14.924;2023-06-22T13:42:05;9.32;;;8.23;;
63499;SDS011;49654;51.142;14.924;2023-06-22T13:44:32;8.85;;;7.95;;
63499;SDS011;49654;51.142;14.924;2023-06-22T13:47:01;8.80;;;8.02;;
63499;SDS011;49654;51.142;14.924;2023-06-22T13:49:27;8.98;;;8.10;;
63499;SDS011;49654;51.142;14.924;2023-06-22T13:51:54;8.77;;;7.97;;
63499;SDS011;49654;51.142;14.924;2023-06-22T13:54:21;8.35;;;7.65;;
63499;SDS011;49654;51.142;14.924;2023-06-22T13:56:48;8.68;;;7.82;;
63499;SDS011;49654;51.142;14.924;2023-06-22T13:59:15;8.32;;;7.63;;
63499;SDS011;49654;51.142;14.924;2023-06-22T14:01:42;8.73;;;7.93;;
63499;SDS011;49654;51.142;14.924;2023-06-22T14:04:10;8.82;;;8.13;;
63499;SDS011;49654;51.142;14.924;2023-06-22T14:06:37;7.78;;;7.15;;
63499;SDS011;49654;51.142;14.924;2023-06-22T14:09:04;12.30;;;7.95;;
63499;SDS011;49654;51.142;14.924;2023-06-22T14:11:32;8.82;;;8.02;;
63499;SDS011;49654;51.142;14.924;2023-06-22T14:13:59;10.02;;;8.30;;
63499;SDS011;49654;51.142;14.924;2023-06-22T14:16:26;8.95;;;8.05;;
63499;SDS011;49654;51.142;14.924;2023-06-22T14:18:53;9.20;;;8.40;;
63499;SDS011;49654;51.142;14.924;2023-06-22T14:21:21;8.90;;;7.97;;
63499;SDS011;49654;51.142;14.924;2023-06-22T14:23:48;9.07;;;8.15;;
63499;SDS011;49654;51.142;14.924;2023-06-22T14:26:15;10.52;;;7.85;;